Time;durP1;ratioP1;P1;durP2;ratioP2;P2;SDS_P1;SDS_P2;PMS_P1;PMS_P2;Temp;Humidity;BMP_temperature;BMP_pressure;BME280_temperature;BME280_humidity;BME280_pressure;Samples;Min_cycle;Max_cycle;Signal;HPM_P1;HPM_P2
2022/11/08 00:01:51;;;;;;;13.07;4.25;;;13.10;92.10;;;;;;5099285;28;20441;-82
2022/11/08 00:04:17;;;;;;;13.13;3.30;;;13.10;92.10;;;;;;5079580;28;20035;-80
2022/11/08 00:14:57;;;;;;;16.25;3.67;;;13.20;91.70;;;;;;5133905;27;20077;-83
2022/11/08 00:17:25;;;;;;;10.50;3.45;;;13.20;91.70;;;;;;5099494;27;20047;-81
2022/11/08 00:19:52;;;;;;;14.88;3.60;;;13.20;91.80;;;;;;5116993;27;20452;-82
2022/11/08 00:22:18;;;;;;;11.95;4.78;;;13.30;91.50;;;;;;5099149;27;20047;-83
2022/11/08 00:24:45;;;;;;;17.42;3.92;;;13.20;91.40;;;;;;5098208;27;20030;-81
2022/11/08 00:27:20;;;;;;;8.15;3.38;;;13.30;91.20;;;;;;5116134;27;20039;-83
2022/11/08 00:29:46;;;;;;;13.20;3.75;;;13.30;91.30;;;;;;5116147;27;20432;-82
2022/11/08 00:32:23;;;;;;;11.63;3.28;;;13.30;90.90;;;;;;5098760;27;20045;-82
2022/11/08 00:34:49;;;;;;;12.95;3.17;;;13.30;91.10;;;;;;5133589;27;20142;-82
2022/11/08 00:37:17;;;;;;;18.48;3.72;;;13.30;90.90;;;;;;5115770;27;20527;-81
2022/11/08 00:39:43;;;;;;;14.75;3.53;;;13.30;91.00;;;;;;5114049;28;20121;-81
2022/11/08 00:42:09;;;;;;;12.57;3.92;;;13.30;90.90;;;;;;5078923;28;20462;-81
2022/11/08 00:44:35;;;;;;;7.60;2.70;;;13.30;91.00;;;;;;5078947;28;20119;-82
2022/11/08 00:47:01;;;;;;;13.77;3.38;;;13.30;91.00;;;;;;5079002;28;20126;-82
2022/11/08 00:49:26;;;;;;;13.75;4.05;;;13.30;90.70;;;;;;5112494;28;20448;-80
2022/11/08 00:51:52;;;;;;;14.45;3.53;;;13.30;90.90;;;;;;5078884;28;20043;-80
2022/11/08 00:54:20;;;;;;;6.80;3.50;;;13.30;90.70;;;;;;5095509;28;20036;-81
2022/11/08 15:45:17;;;;;;;5.50;2.75;;;13.60;83.70;;;;;;5129900;27;20344;-81
2022/11/08 15:47:43;;;;;;;4.93;1.90;;;13.60;83.80;;;;;;5150914;27;20047;-79
2022/11/08 15:50:16;;;;;;;4.75;2.33;;;13.50;83.90;;;;;;5109170;28;20108;-83
2022/11/08 15:52:44;;;;;;;6.50;2.55;;;13.50;83.90;;;;;;5083147;28;20043;-82
2022/11/08 15:55:20;;;;;;;7.40;2.83;;;13.50;84.10;;;;;;5068963;28;20079;-83
2022/11/08 15:57:46;;;;;;;7.70;2.88;;;13.50;83.80;;;;;;5102796;28;20040;-82
2022/11/08 16:00:30;;;;;;;5.63;3.00;;;13.50;84.20;;;;;;5106483;28;20118;-82
2022/11/08 16:02:57;;;;;;;6.10;2.78;;;13.40;84.30;;;;;;5092264;28;20051;-82
2022/11/08 16:05:25;;;;;;;8.63;3.53;;;13.40;85.00;;;;;;5075485;28;20039;-82
2022/11/08 16:07:51;;;;;;;7.40;3.40;;;13.30;84.50;;;;;;5091650;28;20034;-84
2022/11/08 16:10:30;;;;;;;8.20;3.22;;;13.30;84.90;;;;;;5091670;28;20097;-81
2022/11/08 16:12:59;;;;;;;5.45;2.95;;;13.30;85.00;;;;;;5091922;28;20044;-83
2022/11/08 16:15:31;;;;;;;6.80;3.15;;;13.20;85.10;;;;;;5075581;28;20044;-81
2022/11/08 16:17:57;;;;;;;6.30;3.92;;;13.20;85.20;;;;;;5108939;28;20075;-80
2022/11/08 16:20:29;;;;;;;7.90;3.25;;;13.20;85.00;;;;;;5126019;27;20036;-83
2022/11/08 16:22:56;;;;;;;4.97;3.10;;;13.20;85.10;;;;;;5092021;28;20085;-84
2022/11/08 16:25:24;;;;;;;8.52;5.00;;;13.20;85.20;;;;;;5103941;28;20036;-82
2022/11/08 16:28:07;;;;;;;5.20;3.22;;;13.20;84.80;;;;;;5106043;28;20040;-82
2022/11/08 16:30:33;;;;;;;4.00;2.70;;;13.20;84.70;;;;;;5083373;28;20411;-84
2022/11/08 16:32:59;;;;;;;6.10;3.13;;;13.20;84.90;;;;;;5053921;28;20167;-81
2022/11/08 16:35:25;;;;;;;47.80;31.58;;;13.20;85.00;;;;;;5064329;28;20105;-82
2022/11/08 16:37:52;;;;;;;147.63;100.00;;;13.20;84.80;;;;;;5064560;28;20496;-85
2022/11/08 16:40:24;;;;;;;10.05;6.22;;;13.20;84.80;;;;;;5063345;28;20093;-82
2022/11/08 16:42:52;;;;;;;5.45;3.03;;;13.20;85.20;;;;;;5063092;28;20426;-85
2022/11/08 16:45:20;;;;;;;9.85;5.25;;;13.10;84.70;;;;;;5063164;28;20049;-81
2022/11/08 16:47:49;;;;;;;5.57;3.60;;;13.10;85.10;;;;;;5080298;28;20044;-79
2022/11/08 16:50:24;;;;;;;6.13;3.60;;;13.00;85.10;;;;;;5062871;28;20471;-79
2022/11/08 16:52:51;;;;;;;5.55;3.45;;;13.00;85.10;;;;;;5064150;28;20044;-84
2022/11/08 16:55:18;;;;;;;7.28;3.45;;;13.00;85.30;;;;;;5040784;28;20192;-82
2022/11/08 16:57:44;;;;;;;5.80;2.92;;;13.00;85.40;;;;;;5067222;28;20037;-82
2022/11/08 17:00:13;;;;;;;4.97;3.00;;;13.00;85.50;;;;;;5064636;28;20123;-80
2022/11/08 17:03:06;;;;;;;8.60;3.55;;;13.00;85.60;;;;;;5040330;28;20067;-82
2022/11/08 17:05:32;;;;;;;6.97;3.13;;;12.90;85.70;;;;;;5035738;28;20087;-79
2022/11/08 17:07:57;;;;;;;9.38;3.03;;;12.90;85.80;;;;;;5051014;28;20068;-83
2022/11/08 17:10:26;;;;;;;3.53;2.60;;;12.90;85.80;;;;;;5049073;28;20573;-81
2022/11/08 17:12:52;;;;;;;4.45;2.60;;;12.90;85.80;;;;;;5066735;28;20048;-81
2022/11/08 17:15:21;;;;;;;6.38;3.38;;;12.90;85.80;;;;;;5050080;28;20037;-81
2022/11/08 17:17:47;;;;;;;5.90;3.55;;;12.90;85.90;;;;;;5049401;28;20059;-78
2022/11/08 17:20:15;;;;;;;4.40;2.85;;;12.90;85.90;;;;;;5065608;28;20032;-81
2022/11/08 17:22:43;;;;;;;5.78;2.80;;;12.90;85.80;;;;;;5043168;28;20040;-82
2022/11/08 17:25:10;;;;;;;7.82;3.35;;;12.90;85.80;;;;;;5058143;28;20036;-78
2022/11/08 17:27:37;;;;;;;5.82;3.05;;;12.90;86.00;;;;;;5066820;28;20109;-81
2022/11/08 17:30:04;;;;;;;6.05;3.00;;;12.80;86.10;;;;;;5065463;28;20044;-82
2022/11/08 17:32:29;;;;;;;6.03;3.05;;;12.80;86.20;;;;;;5049315;28;20085;-78
2022/11/08 17:34:55;;;;;;;9.18;3.47;;;12.80;86.20;;;;;;5049976;28;20048;-82
2022/11/08 17:37:22;;;;;;;8.38;3.78;;;12.80;86.30;;;;;;5049584;28;20052;-79
2022/11/08 17:39:48;;;;;;;4.30;2.90;;;12.80;86.40;;;;;;5065046;28;20055;-79
2022/11/08 17:42:14;;;;;;;4.68;3.05;;;12.80;86.40;;;;;;5066222;28;20048;-79
2022/11/08 17:44:39;;;;;;;7.32;3.45;;;12.80;86.30;;;;;;5048277;28;20097;-80
2022/11/08 17:47:05;;;;;;;8.25;3.30;;;12.80;86.40;;;;;;5032158;28;20052;-82
2022/11/08 17:49:31;;;;;;;5.28;2.33;;;12.80;86.50;;;;;;5047825;28;20072;-82
2022/11/08 17:51:57;;;;;;;6.45;3.08;;;12.80;86.50;;;;;;5066275;28;20043;-82
2022/11/08 17:54:23;;;;;;;6.38;3.22;;;12.80;86.50;;;;;;5049312;28;20040;-81
2022/11/08 17:56:48;;;;;;;6.85;3.47;;;12.80;86.60;;;;;;5049687;28;20387;-81
2022/11/08 17:59:15;;;;;;;5.00;3.05;;;12.80;86.80;;;;;;5058692;28;20400;-80
2022/11/08 18:01:41;;;;;;;13.82;8.18;;;12.70;86.90;;;;;;5040744;28;20052;-79
2022/11/08 18:04:07;;;;;;;25.65;12.75;;;12.70;86.90;;;;;;5068118;28;20099;-78
2022/11/08 18:06:33;;;;;;;87.40;36.58;;;12.80;87.00;;;;;;5051190;28;20487;-78
2022/11/08 18:08:59;;;;;;;118.63;48.05;;;12.80;86.90;;;;;;5057895;28;20059;-78
2022/11/08 18:11:25;;;;;;;31.77;20.05;;;12.80;87.00;;;;;;5053753;28;20045;-79
2022/11/08 18:13:50;;;;;;;9.20;6.85;;;12.80;87.00;;;;;;5036706;28;20476;-80
2022/11/08 18:16:20;;;;;;;9.98;5.68;;;12.80;87.00;;;;;;5050540;28;20123;-79
2022/11/08 18:18:46;;;;;;;6.88;5.22;;;12.80;87.10;;;;;;5059419;28;20109;-82
2022/11/08 18:21:12;;;;;;;9.25;3.92;;;12.80;87.10;;;;;;5044361;28;20051;-80
2022/11/08 18:23:43;;;;;;;6.47;3.53;;;12.80;87.10;;;;;;5059962;28;20047;-82
2022/11/08 18:26:09;;;;;;;6.35;3.42;;;12.80;87.20;;;;;;5066988;28;20051;-78
2022/11/08 18:28:37;;;;;;;9.65;3.95;;;12.80;87.20;;;;;;5054452;28;20178;-81
2022/11/08 18:31:07;;;;;;;6.45;3.25;;;12.80;87.20;;;;;;5049711;28;20078;-79
2022/11/08 18:33:34;;;;;;;9.18;4.07;;;12.80;87.20;;;;;;5065668;28;20052;-82
2022/11/08 18:36:21;;;;;;;8.85;3.55;;;12.80;87.30;;;;;;5049707;28;20114;-82
2022/11/08 18:38:48;;;;;;;6.95;3.78;;;12.80;87.30;;;;;;5066241;28;20123;-80
2022/11/08 18:41:23;;;;;;;9.93;3.80;;;12.80;87.40;;;;;;5049092;28;20091;-81
2022/11/08 18:43:50;;;;;;;6.63;3.47;;;12.80;87.40;;;;;;5063983;28;20522;-79
2022/11/08 18:46:18;;;;;;;7.25;3.60;;;12.80;87.50;;;;;;5049732;28;20048;-80
2022/11/08 18:48:43;;;;;;;7.93;3.90;;;12.80;87.50;;;;;;5066763;28;20125;-82
2022/11/08 18:51:12;;;;;;;8.57;3.60;;;12.80;87.50;;;;;;5049360;28;20044;-81
2022/11/08 18:53:39;;;;;;;7.40;3.40;;;12.80;87.50;;;;;;5047765;28;20385;-80
2022/11/08 18:56:05;;;;;;;10.68;4.95;;;12.90;87.40;;;;;;5048910;28;20052;-84
2022/11/08 18:58:32;;;;;;;9.88;4.93;;;12.90;87.40;;;;;;5049455;28;20086;-81
2022/11/08 19:00:58;;;;;;;7.43;4.32;;;12.90;87.40;;;;;;5066211;28;20454;-81
2022/11/08 19:03:25;;;;;;;7.70;4.70;;;12.90;87.40;;;;;;5047784;28;20395;-81
2022/11/08 19:05:50;;;;;;;8.52;4.65;;;12.90;87.40;;;;;;5064265;28;20036;-80
2022/11/08 19:08:19;;;;;;;8.13;4.32;;;12.90;87.40;;;;;;5049416;28;20047;-81
2022/11/08 19:11:09;;;;;;;9.05;5.47;;;12.90;87.40;;;;;;5064616;28;20036;-80
2022/11/08 19:13:36;;;;;;;12.48;5.85;;;12.90;87.40;;;;;;5063832;28;20056;-82
2022/11/08 19:16:11;;;;;;;7.07;4.20;;;12.90;87.40;;;;;;5052112;28;20052;-83
2022/11/08 19:18:37;;;;;;;9.35;3.55;;;12.90;87.40;;;;;;5068954;28;20052;-80
2022/11/08 19:21:05;;;;;;;8.45;4.22;;;12.90;87.40;;;;;;5057377;28;20106;-83
2022/11/08 19:23:32;;;;;;;9.60;4.28;;;12.90;87.40;;;;;;5054341;28;20211;-79
2022/11/08 19:26:01;;;;;;;8.32;4.47;;;13.00;87.40;;;;;;5049056;28;20091;-81
2022/11/08 19:28:30;;;;;;;8.45;3.80;;;12.90;87.40;;;;;;5065965;28;20135;-82
2022/11/08 19:30:55;;;;;;;8.95;4.40;;;12.90;87.50;;;;;;5064606;28;20040;-80
2022/11/08 19:33:23;;;;;;;7.43;4.00;;;12.90;87.40;;;;;;5047921;28;20441;-81
2022/11/08 19:35:49;;;;;;;8.95;4.65;;;12.90;87.40;;;;;;5065687;28;20080;-84
2022/11/08 19:38:15;;;;;;;7.25;3.45;;;12.90;87.50;;;;;;5065633;28;20082;-79
2022/11/08 19:40:41;;;;;;;6.82;3.30;;;12.90;87.60;;;;;;5048984;28;20548;-82
2022/11/08 19:43:07;;;;;;;8.18;3.97;;;12.90;87.60;;;;;;5051074;28;20051;-80
2022/11/08 19:45:33;;;;;;;9.80;3.95;;;12.90;87.70;;;;;;5049054;28;20410;-83
2022/11/08 19:47:59;;;;;;;8.98;3.38;;;12.90;87.80;;;;;;5066237;28;20396;-78
2022/11/08 19:50:25;;;;;;;9.55;3.35;;;12.80;87.60;;;;;;5065049;28;20044;-81
2022/11/08 19:52:50;;;;;;;7.57;3.05;;;12.90;87.70;;;;;;5047412;28;20040;-85
2022/11/08 19:55:16;;;;;;;7.72;3.50;;;12.90;87.80;;;;;;5048439;28;20128;-79
2022/11/08 19:57:42;;;;;;;8.85;3.72;;;12.80;87.90;;;;;;5048626;28;20049;-82
2022/11/08 20:00:09;;;;;;;11.38;5.80;;;12.80;87.80;;;;;;5032643;28;20040;-81
2022/11/08 20:02:36;;;;;;;5.53;3.67;;;12.80;87.90;;;;;;5047133;28;20402;-82
2022/11/08 20:05:02;;;;;;;6.82;2.90;;;12.90;88.00;;;;;;5031727;28;20495;-80
2022/11/08 20:07:28;;;;;;;8.02;3.92;;;12.90;88.00;;;;;;5048645;28;20131;-81
2022/11/08 20:09:54;;;;;;;7.80;3.35;;;12.80;88.00;;;;;;5065042;28;20494;-82
2022/11/08 20:12:20;;;;;;;7.72;3.78;;;12.80;88.00;;;;;;5048559;28;20127;-80
2022/11/08 20:14:48;;;;;;;7.25;3.30;;;12.80;88.20;;;;;;5047425;28;20135;-80
2022/11/08 20:17:14;;;;;;;8.23;3.15;;;12.80;88.20;;;;;;5065002;28;20394;-81
2022/11/08 20:19:40;;;;;;;7.43;3.22;;;12.90;88.10;;;;;;5066950;28;20175;-81
2022/11/08 20:22:06;;;;;;;7.30;3.45;;;12.90;88.20;;;;;;5065410;28;20119;-80
2022/11/08 20:24:31;;;;;;;9.77;4.00;;;12.90;88.20;;;;;;5062034;28;20557;-84
2022/11/08 20:26:57;;;;;;;8.23;4.05;;;13.00;88.10;;;;;;5064828;28;20055;-82
2022/11/08 20:29:24;;;;;;;10.55;3.92;;;13.00;88.10;;;;;;5048547;28;20086;-81
2022/11/08 20:31:51;;;;;;;7.78;2.95;;;13.00;88.30;;;;;;5052412;28;20106;-81
2022/11/08 20:34:17;;;;;;;5.70;3.33;;;13.10;88.10;;;;;;5068273;28;20123;-81
2022/11/08 20:36:43;;;;;;;6.00;3.13;;;13.20;88.90;;;;;;5035835;28;20460;-80
2022/11/08 20:39:14;;;;;;;7.13;3.30;;;13.20;88.90;;;;;;5030608;28;20040;-84
2022/11/08 20:41:40;;;;;;;5.03;1.77;;;13.10;88.60;;;;;;5053548;28;20388;-86
2022/11/08 20:44:07;;;;;;;5.25;1.70;;;13.00;86.50;;;;;;5054799;28;20059;-79
2022/11/08 20:46:34;;;;;;;4.05;1.50;;;13.00;87.10;;;;;;5074578;28;20036;-82
2022/11/08 20:49:00;;;;;;;3.97;1.65;;;12.80;86.90;;;;;;5074684;28;20094;-81
2022/11/08 20:51:26;;;;;;;3.72;1.00;;;12.60;87.40;;;;;;5041349;28;20131;-81
2022/11/08 20:53:52;;;;;;;4.15;1.00;;;12.50;87.70;;;;;;5058045;28;20040;-80
2022/11/08 20:56:20;;;;;;;4.70;0.82;;;12.40;87.80;;;;;;5057828;28;20047;-82
2022/11/08 20:58:47;;;;;;;3.20;1.02;;;12.30;88.20;;;;;;5057986;28;20048;-80
2022/11/08 21:01:15;;;;;;;3.85;1.30;;;12.10;88.90;;;;;;5057735;28;20048;-81
2022/11/08 21:03:43;;;;;;;2.63;1.10;;;12.00;89.20;;;;;;5057555;28;20044;-81
2022/11/08 21:06:11;;;;;;;4.18;1.52;;;11.90;89.60;;;;;;5057857;28;20040;-81
2022/11/08 21:08:37;;;;;;;4.65;1.70;;;11.80;90.60;;;;;;5074263;28;20086;-82
2022/11/08 21:11:04;;;;;;;5.53;1.88;;;11.80;90.80;;;;;;5057605;28;20044;-83
2022/11/08 21:13:32;;;;;;;6.75;2.17;;;11.70;91.80;;;;;;5057743;28;20133;-82
2022/11/08 21:15:59;;;;;;;7.80;2.53;;;11.60;92.40;;;;;;5057711;28;20384;-83
2022/11/08 21:18:26;;;;;;;3.33;1.30;;;11.60;92.10;;;;;;5057613;28;20075;-83
2022/11/08 21:21:15;;;;;;;5.32;1.40;;;11.60;92.50;;;;;;5057589;28;20503;-84
2022/11/08 21:23:43;;;;;;;6.78;2.22;;;11.60;92.00;;;;;;5040849;28;20037;-81
2022/11/08 21:26:10;;;;;;;4.30;2.33;;;11.60;92.30;;;;;;5057190;28;20040;-84
2022/11/08 21:28:36;;;;;;;4.95;2.35;;;11.60;92.20;;;;;;5057648;28;20093;-82
2022/11/08 21:31:03;;;;;;;6.68;2.75;;;11.50;92.50;;;;;;5040843;28;20127;-84
2022/11/08 21:33:29;;;;;;;8.13;2.70;;;11.50;93.00;;;;;;5057298;28;20044;-81
2022/11/08 21:35:56;;;;;;;5.90;3.60;;;11.50;93.40;;;;;;5057044;28;20036;-82
2022/11/08 21:38:22;;;;;;;6.45;3.35;;;11.50;93.60;;;;;;5056955;28;20127;-83
2022/11/08 21:40:48;;;;;;;4.85;3.00;;;11.50;93.40;;;;;;5056622;28;20040;-83
2022/11/08 21:43:15;;;;;;;8.13;2.63;;;11.60;94.30;;;;;;5073423;28;20070;-83
2022/11/08 21:45:41;;;;;;;7.55;2.08;;;11.60;94.00;;;;;;5073571;28;20488;-82
2022/11/08 21:48:08;;;;;;;4.18;1.77;;;11.60;93.60;;;;;;5073541;28;20036;-81
2022/11/08 21:50:35;;;;;;;2.80;1.60;;;11.70;93.00;;;;;;5073727;28;20036;-83
2022/11/08 21:53:02;;;;;;;2.97;1.42;;;11.70;92.70;;;;;;5056962;28;20093;-82
2022/11/08 21:55:28;;;;;;;3.42;1.42;;;11.70;92.30;;;;;;5056679;28;20054;-83
2022/11/08 21:57:54;;;;;;;3.67;1.20;;;11.70;92.10;;;;;;5056789;28;20032;-82
2022/11/08 22:00:20;;;;;;;4.38;1.00;;;11.70;91.70;;;;;;5073577;28;20109;-79
2022/11/08 22:02:46;;;;;;;2.45;1.00;;;11.70;91.20;;;;;;5056839;28;20036;-82
2022/11/08 22:05:11;;;;;;;2.38;0.90;;;11.70;91.10;;;;;;5056572;28;20483;-82
2022/11/08 22:07:37;;;;;;;3.10;1.10;;;11.70;91.00;;;;;;5073377;28;20036;-82
2022/11/08 22:10:04;;;;;;;2.95;0.90;;;11.70;90.90;;;;;;5073068;28;20076;-82
2022/11/08 22:12:30;;;;;;;5.35;1.02;;;11.80;90.60;;;;;;5073103;28;20055;-82
2022/11/08 22:14:56;;;;;;;2.00;0.85;;;11.70;90.80;;;;;;5056429;28;20098;-82
2022/11/08 22:17:22;;;;;;;3.22;1.05;;;11.70;90.50;;;;;;5073087;28;20454;-81
2022/11/08 22:19:48;;;;;;;3.75;1.20;;;11.80;90.50;;;;;;5072960;28;20400;-82
2022/11/08 22:22:14;;;;;;;3.15;0.90;;;11.80;90.50;;;;;;5056300;28;20476;-82
2022/11/08 22:24:40;;;;;;;4.28;1.48;;;11.80;90.70;;;;;;5055772;28;20043;-82
2022/11/08 22:27:06;;;;;;;1.55;1.08;;;11.80;90.70;;;;;;5056388;28;20032;-83
2022/11/08 22:29:31;;;;;;;1.85;1.00;;;11.80;91.00;;;;;;5039956;28;20361;-84
2022/11/08 22:31:57;;;;;;;6.43;1.75;;;11.80;91.30;;;;;;5039426;28;20039;-84
2022/11/08 22:34:23;;;;;;;3.92;1.35;;;11.80;91.30;;;;;;5039422;28;20043;-83
2022/11/08 22:36:49;;;;;;;4.13;1.30;;;11.70;91.50;;;;;;5056219;28;20036;-83
2022/11/08 22:39:20;;;;;;;4.07;1.35;;;11.70;91.50;;;;;;5056016;28;20056;-84
2022/11/08 22:41:48;;;;;;;4.32;2.00;;;11.70;91.70;;;;;;5072780;28;20046;-83
2022/11/08 22:44:14;;;;;;;3.38;1.40;;;11.70;91.90;;;;;;5055779;28;20067;-82
2022/11/08 22:46:41;;;;;;;3.75;1.20;;;11.70;91.50;;;;;;5055801;28;20093;-82
2022/11/08 22:49:07;;;;;;;2.85;1.20;;;11.70;92.00;;;;;;5072392;28;20124;-81
2022/11/08 22:51:33;;;;;;;3.65;1.23;;;11.60;92.20;;;;;;5055995;28;20131;-83
2022/11/08 22:53:59;;;;;;;6.65;1.38;;;11.60;92.00;;;;;;5055328;28;20448;-82
2022/11/08 22:56:24;;;;;;;3.55;1.15;;;11.60;92.20;;;;;;5055840;28;20045;-82
2022/11/08 22:58:50;;;;;;;4.63;1.20;;;11.60;92.30;;;;;;5055545;28;20404;-84
2022/11/08 23:01:16;;;;;;;3.63;1.00;;;11.60;92.70;;;;;;5055783;28;20249;-82
2022/11/08 23:03:45;;;;;;;3.97;1.55;;;11.70;92.60;;;;;;5038735;28;20036;-83
2022/11/08 23:06:11;;;;;;;3.75;1.10;;;11.60;92.60;;;;;;5071928;28;20040;-84
2022/11/08 23:08:37;;;;;;;3.88;1.45;;;11.60;92.70;;;;;;5055478;28;20036;-83
2022/11/08 23:16:39;;;;;;;5.53;1.35;;;11.70;92.70;;;;;;5057708;28;20045;-80
2022/11/08 23:24:41;;;;;;;7.38;1.48;;;11.60;93.10;;;;;;5057699;28;20044;-82
2022/11/08 23:32:44;;;;;;;4.38;1.52;;;11.60;93.70;;;;;;5058018;28;20040;-80
2022/11/08 23:35:10;;;;;;;5.27;1.50;;;11.60;93.80;;;;;;5038599;28;20040;-81
2022/11/08 23:37:36;;;;;;;6.30;1.80;;;11.60;93.70;;;;;;5054972;28;20319;-82
2022/11/08 23:45:30;;;;;;;7.80;1.80;;;11.70;94.30;;;;;;5057796;28;20135;-82
2022/11/08 23:47:56;;;;;;;6.50;1.48;;;11.70;94.40;;;;;;5055790;28;20152;-82
2022/11/08 23:50:21;;;;;;;7.43;1.90;;;11.70;94.30;;;;;;5073017;28;20044;-80
2022/11/08 23:52:47;;;;;;;9.07;1.75;;;11.70;94.50;;;;;;5039477;28;20080;-81
2022/11/08 23:55:13;;;;;;;6.97;1.40;;;11.70;94.40;;;;;;5055573;28;20606;-82
2022/11/08 23:57:39;;;;;;;7.75;1.60;;;11.60;94.10;;;;;;5054871;28;20036;-81
